Time;durP1;ratioP1;P1;durP2;ratioP2;P2;SDS_P1;SDS_P2;PMS_P1;PMS_P2;Temp;Humidity;BMP_temperature;BMP_pressure;BME280_temperature;BME280_humidity;BME280_pressure;Samples;Min_cycle;Max_cycle;Signal;HPM_P1;HPM_P2
2023/06/19 00:00:27;;;;;;;3.10;2.42;;;;;;;22.17;55.04;100806.13;6249293;28;20049;-73
2023/06/19 00:03:28;;;;;;;5.05;2.95;;;;;;;22.15;55.38;100807.25;6250076;28;20045;-73
2023/06/19 00:06:30;;;;;;;4.15;2.70;;;;;;;22.14;55.42;100810.94;6251355;28;20585;-73
2023/06/19 00:09:31;;;;;;;4.28;3.10;;;;;;;22.12;55.90;100807.56;6255031;28;20053;-73
2023/06/19 00:12:33;;;;;;;3.78;2.30;;;;;;;22.10;55.99;100806.84;6251519;28;20062;-73
2023/06/19 00:15:35;;;;;;;4.50;3.15;;;;;;;22.07;55.67;100797.28;6253153;28;20434;-73
2023/06/19 00:18:39;;;;;;;4.85;2.83;;;;;;;22.06;56.43;100800.97;6249790;28;20057;-73
2023/06/19 00:21:42;;;;;;;4.20;2.85;;;;;;;22.04;56.75;100798.44;6242276;28;20052;-73
2023/06/19 00:24:44;;;;;;;4.45;2.90;;;;;;;22.03;56.71;100799.44;6238114;28;20041;-73
2023/06/19 00:27:45;;;;;;;5.70;2.65;;;;;;;22.01;56.57;100795.22;6254297;28;20056;-73
2023/06/19 00:30:48;;;;;;;5.25;2.75;;;;;;;22.00;56.16;100791.72;6253843;28;20045;-73
2023/06/19 00:33:50;;;;;;;4.68;2.78;;;;;;;21.98;56.46;100782.16;6249724;28;20041;-74
2023/06/19 00:36:56;;;;;;;3.40;2.72;;;;;;;21.95;56.43;100780.66;6254349;28;20045;-74
2023/06/19 00:39:57;;;;;;;4.78;2.92;;;;;;;21.95;56.60;100771.78;6248844;28;20143;-73
2023/06/19 00:42:59;;;;;;;5.35;2.95;;;;;;;21.92;56.36;100770.25;6253366;28;20045;-73
2023/06/19 00:46:02;;;;;;;4.45;2.65;;;;;;;21.92;56.55;100761.38;6253932;28;20049;-73
2023/06/19 00:49:04;;;;;;;4.25;2.60;;;;;;;21.94;56.20;100756.72;6253891;28;20355;-73
2023/06/19 00:52:06;;;;;;;6.30;3.22;;;;;;;21.93;56.67;100747.00;6253183;28;20049;-73
2023/06/19 00:55:08;;;;;;;5.88;3.05;;;;;;;21.90;56.63;100753.50;6253611;28;20056;-73
2023/06/19 00:58:10;;;;;;;5.32;2.97;;;;;;;21.90;56.73;100755.34;6249986;28;20130;-73
2023/06/19 01:01:13;;;;;;;5.50;3.22;;;;;;;21.86;56.21;100754.81;6252890;28;20053;-73
2023/06/19 01:04:15;;;;;;;4.70;2.50;;;;;;;21.85;56.51;100754.97;6240039;28;20049;-74
2023/06/19 01:07:20;;;;;;;3.75;2.65;;;;;;;21.85;56.47;100752.31;6253378;28;20056;-73
2023/06/19 01:10:28;;;;;;;4.65;2.58;;;;;;;21.86;56.37;100754.81;6253036;28;20050;-71
2023/06/19 01:13:35;;;;;;;5.30;2.85;;;;;;;21.88;56.24;100743.94;6253142;28;20441;-71
2023/06/19 01:16:38;;;;;;;4.68;3.00;;;;;;;21.88;56.16;100747.47;6253445;28;20049;-71
2023/06/19 01:19:40;;;;;;;4.07;2.92;;;;;;;21.87;56.75;100742.28;6252273;28;20438;-71
2023/06/19 01:22:43;;;;;;;4.45;2.58;;;;;;;21.85;56.69;100737.09;6252559;28;20049;-71
2023/06/19 01:25:45;;;;;;;4.28;2.58;;;;;;;21.88;56.15;100735.91;6236748;28;20393;-71
2023/06/19 01:28:46;;;;;;;5.40;3.08;;;;;;;21.88;56.16;100728.72;6253141;28;20045;-71
2023/06/19 01:31:56;;;;;;;5.43;2.83;;;;;;;21.91;56.76;100730.28;6252229;28;20064;-71
2023/06/19 01:34:59;;;;;;;3.67;2.72;;;;;;;21.88;56.58;100726.06;6248998;28;20442;-71
2023/06/19 01:38:03;;;;;;;6.15;2.78;;;;;;;21.88;56.78;100731.41;6252889;28;20065;-71
2023/06/19 01:41:07;;;;;;;7.20;3.45;;;;;;;21.85;56.67;100729.06;6243823;28;20072;-71
2023/06/19 01:44:09;;;;;;;4.07;2.55;;;;;;;21.86;56.98;100725.38;6252571;28;20049;-71
2023/06/19 01:47:12;;;;;;;4.55;2.85;;;;;;;21.82;57.32;100728.53;6252553;28;20060;-71
2023/06/19 01:50:13;;;;;;;3.67;2.42;;;;;;;21.78;57.52;100720.78;6251918;28;20045;-71
2023/06/19 01:53:16;;;;;;;3.97;2.70;;;;;;;21.76;58.06;100716.63;6252274;28;20041;-71
2023/06/19 01:56:17;;;;;;;6.15;2.90;;;;;;;21.74;57.49;100714.06;6252504;28;20045;-72
2023/06/19 01:59:19;;;;;;;4.25;3.03;;;;;;;21.73;57.12;100719.59;6252302;28;20049;-71
2023/06/19 02:02:20;;;;;;;4.70;2.63;;;;;;;21.71;57.51;100718.88;6251765;28;20053;-71
2023/06/19 02:05:22;;;;;;;3.65;2.95;;;;;;;21.68;57.47;100722.72;6244299;28;20061;-71
2023/06/19 02:08:25;;;;;;;4.03;2.90;;;;;;;21.69;57.14;100716.38;6252286;28;20449;-71
2023/06/19 02:11:26;;;;;;;4.80;2.88;;;;;;;21.65;57.81;100722.19;6251368;28;20053;-71
2023/06/19 02:14:27;;;;;;;4.63;2.95;;;;;;;21.63;58.23;100722.34;6251760;28;20037;-71
2023/06/19 02:17:29;;;;;;;3.78;2.55;;;;;;;21.61;58.30;100713.63;6251886;28;20038;-71
2023/06/19 02:20:30;;;;;;;4.13;2.50;;;;;;;21.59;58.66;100717.47;6248598;28;20047;-71
2023/06/19 02:23:33;;;;;;;4.05;2.80;;;;;;;21.59;58.67;100714.78;6240604;28;20347;-71
2023/06/19 02:26:34;;;;;;;3.10;2.53;;;;;;;21.58;59.22;100715.78;6250028;28;20187;-71
2023/06/19 02:29:35;;;;;;;3.50;2.58;;;;;;;21.58;59.39;100707.78;6243304;28;20072;-71
2023/06/19 02:32:37;;;;;;;4.60;2.85;;;;;;;21.58;59.47;100697.91;6250663;28;20045;-71
2023/06/19 02:35:38;;;;;;;5.68;2.85;;;;;;;21.55;59.73;100706.22;6248553;28;20052;-72
2023/06/19 02:38:41;;;;;;;4.13;2.67;;;;;;;21.55;59.02;100700.88;6251337;28;20041;-72
2023/06/19 02:41:45;;;;;;;4.95;2.75;;;;;;;21.54;59.19;100691.19;6250750;28;20046;-71
2023/06/19 02:44:47;;;;;;;6.05;3.10;;;;;;;21.53;59.33;100698.38;6235219;28;20044;-71
2023/06/19 02:47:48;;;;;;;3.67;2.55;;;;;;;21.54;59.32;100699.22;6251383;28;20426;-71
2023/06/19 02:50:49;;;;;;;3.90;2.97;;;;;;;21.50;59.51;100681.78;6242348;28;20042;-71
2023/06/19 02:53:52;;;;;;;2.60;2.30;;;;;;;21.50;59.68;100693.31;6228074;28;20045;-71
2023/06/19 02:56:53;;;;;;;3.88;2.75;;;;;;;21.47;60.74;100690.94;6250879;28;20057;-71
2023/06/19 02:59:55;;;;;;;6.00;3.33;;;;;;;21.41;59.37;100694.25;6250916;28;20453;-71
2023/06/19 03:02:56;;;;;;;4.65;3.00;;;;;;;21.40;58.72;100686.38;6237572;28;20052;-72
2023/06/19 03:05:59;;;;;;;3.85;2.60;;;;;;;21.40;59.84;100681.03;6244106;28;20401;-71
2023/06/19 03:09:02;;;;;;;4.45;3.28;;;;;;;21.38;58.34;100691.03;6250499;28;20056;-71
2023/06/19 03:12:04;;;;;;;6.60;3.00;;;;;;;21.40;59.12;100686.38;6249824;28;20053;-71
2023/06/19 03:15:07;;;;;;;4.60;2.72;;;;;;;21.39;59.39;100698.06;6246651;28;20052;-71
2023/06/19 03:18:10;;;;;;;5.28;3.00;;;;;;;21.35;58.94;100702.03;6246662;28;20056;-71
2023/06/19 03:21:12;;;;;;;4.60;2.78;;;;;;;21.35;59.01;100705.56;6249917;28;20121;-71
2023/06/19 03:24:14;;;;;;;6.30;3.03;;;;;;;21.35;59.57;100705.56;6250221;28;20052;-71
2023/06/19 03:27:16;;;;;;;6.45;2.90;;;;;;;21.31;61.17;100703.31;6250499;28;20188;-71
2023/06/19 03:30:18;;;;;;;5.47;3.25;;;;;;;21.32;60.89;100705.84;6249574;28;20052;-72
2023/06/19 03:33:19;;;;;;;5.38;3.28;;;;;;;21.31;61.06;100703.31;6250356;28;20132;-71
2023/06/19 03:36:22;;;;;;;4.63;3.05;;;;;;;21.27;60.55;100706.28;6242175;28;20056;-71
2023/06/19 03:39:25;;;;;;;5.07;3.00;;;;;;;21.31;60.79;100708.66;6250377;28;20046;-71
2023/06/19 03:42:26;;;;;;;4.20;2.72;;;;;;;21.27;61.43;100711.63;6248905;28;20048;-71
2023/06/19 03:45:28;;;;;;;3.58;2.92;;;;;;;21.28;61.50;100720.47;6241858;28;20048;-71
2023/06/19 03:48:29;;;;;;;5.22;3.03;;;;;;;21.26;62.01;100720.66;6250158;28;20426;-71
2023/06/19 03:51:31;;;;;;;4.05;2.90;;;;;;;21.29;61.53;100712.31;6248306;28;20516;-71
2023/06/19 03:54:33;;;;;;;5.43;2.88;;;;;;;21.31;61.52;100714.00;6249986;28;20429;-71
2023/06/19 03:57:34;;;;;;;4.95;2.83;;;;;;;21.31;61.93;100716.69;6247883;28;20045;-71
2023/06/19 04:00:36;;;;;;;5.35;2.70;;;;;;;21.29;62.17;100716.81;6242731;28;20052;-71
2023/06/19 04:03:37;;;;;;;4.57;3.10;;;;;;;21.26;62.78;100727.81;6242102;28;20045;-71
2023/06/19 04:06:39;;;;;;;5.63;3.20;;;;;;;21.23;62.00;100720.94;6232602;28;20060;-72
2023/06/19 04:09:41;;;;;;;4.85;3.30;;;;;;;21.22;62.69;100719.25;6243154;28;20327;-71
2023/06/19 04:12:45;;;;;;;5.72;3.30;;;;;;;21.23;63.31;100712.91;6243720;28;20080;-71
2023/06/19 04:15:46;;;;;;;4.35;3.13;;;;;;;21.20;62.31;100710.53;6236094;28;20502;-71
2023/06/19 04:18:48;;;;;;;5.05;3.22;;;;;;;21.21;62.96;100712.25;6243193;28;20061;-71
2023/06/19 04:21:49;;;;;;;7.13;3.33;;;;;;;21.21;63.13;100704.22;6242232;28;20323;-71
2023/06/19 04:24:52;;;;;;;6.43;3.65;;;;;;;21.18;64.35;100712.53;6226497;28;20053;-72
2023/06/19 04:27:53;;;;;;;5.00;3.35;;;;;;;21.18;65.59;100709.88;6244216;28;20053;-71
2023/06/19 04:31:00;;;;;;;4.05;2.75;;;;;;;21.17;65.54;100710.03;6242568;28;20053;-71
2023/06/19 04:34:05;;;;;;;4.65;3.35;;;;;;;21.14;65.87;100710.31;6232806;28;20265;-71
2023/06/19 04:37:06;;;;;;;5.00;2.95;;;;;;;21.13;65.64;100711.31;6228815;28;20088;-71
2023/06/19 04:40:10;;;;;;;4.05;2.63;;;;;;;21.13;66.05;100705.97;6242181;28;20077;-71
2023/06/19 04:43:12;;;;;;;4.03;2.75;;;;;;;21.11;66.02;100711.44;6242572;28;20457;-71
2023/06/19 04:46:13;;;;;;;5.05;3.25;;;;;;;21.09;66.40;100710.78;6245891;28;20061;-71
2023/06/19 04:49:15;;;;;;;4.22;2.90;;;;;;;21.09;66.86;100720.63;6244418;28;20126;-71
2023/06/19 04:52:18;;;;;;;5.72;3.13;;;;;;;21.10;66.37;100724.97;6232125;28;20050;-71
2023/06/19 04:55:21;;;;;;;5.90;3.60;;;;;;;21.08;67.07;100717.13;6253198;28;20092;-71
2023/06/19 04:58:23;;;;;;;4.15;2.83;;;;;;;21.07;66.73;100718.09;6253628;28;20350;-71
2023/06/19 05:01:28;;;;;;;6.20;3.40;;;;;;;21.07;66.36;100714.56;6253064;28;20052;-71
2023/06/19 05:04:32;;;;;;;8.18;3.40;;;;;;;21.06;66.96;100715.56;6238744;28;20058;-71
2023/06/19 05:07:33;;;;;;;4.55;3.10;;;;;;;21.05;67.62;100720.06;6251738;28;20361;-71
2023/06/19 05:10:36;;;;;;;2.95;2.22;;;;;;;21.06;67.77;100728.94;6252640;28;20457;-71
2023/06/19 05:13:38;;;;;;;4.53;2.80;;;;;;;21.07;68.31;100714.56;6253359;28;20045;-71
2023/06/19 05:16:39;;;;;;;5.75;2.85;;;;;;;21.07;68.29;100714.56;6253215;28;20045;-71
2023/06/19 05:19:41;;;;;;;4.18;2.95;;;;;;;21.05;68.95;100712.06;6253393;28;20123;-71
2023/06/19 05:22:42;;;;;;;4.85;2.92;;;;;;;21.07;69.27;100714.56;6252348;28;20052;-71
2023/06/19 05:25:45;;;;;;;6.32;3.45;;;;;;;21.06;68.97;100718.25;6253080;28;20052;-71
2023/06/19 05:28:46;;;;;;;4.88;2.88;;;;;;;21.05;69.29;100709.38;6252945;28;20050;-71
2023/06/19 05:31:48;;;;;;;5.80;3.55;;;;;;;20.99;70.11;100716.19;6252537;28;20045;-71
2023/06/19 05:34:49;;;;;;;7.28;3.00;;;;;;;21.01;70.02;100727.53;6248540;28;20565;-73
2023/06/19 05:37:51;;;;;;;3.85;2.92;;;;;;;21.03;69.33;100727.41;6252736;28;20389;-73
2023/06/19 05:40:53;;;;;;;4.82;2.67;;;;;;;21.06;69.97;100729.78;6252115;28;20052;-73
2023/06/19 05:43:55;;;;;;;5.53;2.40;;;;;;;21.08;70.90;100730.47;6252399;28;20042;-73
2023/06/19 05:46:56;;;;;;;11.38;5.38;;;;;;;21.08;71.89;100733.16;6252713;28;20046;-73
2023/06/19 05:49:58;;;;;;;8.00;4.72;;;;;;;21.08;72.42;100735.81;6252574;28;20053;-73
2023/06/19 05:52:59;;;;;;;6.30;3.88;;;;;;;21.11;73.22;100737.34;6251843;28;20049;-73
2023/06/19 05:56:02;;;;;;;5.72;3.42;;;;;;;21.13;73.29;100738.03;6252265;28;20050;-74
2023/06/19 05:59:04;;;;;;;5.32;2.85;;;;;;;21.17;73.47;100736.75;6243754;28;20354;-73
2023/06/19 06:02:07;;;;;;;3.72;2.65;;;;;;;21.19;73.80;100740.94;6245110;28;20050;-73
2023/06/19 06:05:09;;;;;;;7.78;3.00;;;;;;;21.24;74.74;100743.16;6241226;28;20343;-73
2023/06/19 06:08:11;;;;;;;4.20;3.00;;;;;;;21.28;74.66;100753.41;6243861;28;20056;-73
2023/06/19 06:11:13;;;;;;;5.35;2.75;;;;;;;21.31;74.69;100757.66;6251304;28;20045;-73
2023/06/19 06:14:15;;;;;;;3.97;2.60;;;;;;;21.34;74.92;100757.31;6251946;28;20041;-73
2023/06/19 06:17:16;;;;;;;6.35;3.05;;;;;;;21.37;75.80;100754.34;6251730;28;20348;-74
2023/06/19 06:20:18;;;;;;;5.28;3.38;;;;;;;21.40;75.79;100758.56;6251242;28;20057;-73
2023/06/19 06:23:19;;;;;;;6.22;3.05;;;;;;;21.41;75.60;100754.91;6247980;28;20052;-73
2023/06/19 06:26:22;;;;;;;6.72;3.53;;;;;;;21.43;77.46;100755.56;6228267;28;20046;-73
2023/06/19 06:29:23;;;;;;;5.03;3.05;;;;;;;21.44;76.65;100763.47;6235113;28;20088;-73
2023/06/19 06:32:26;;;;;;;5.38;3.08;;;;;;;21.45;76.69;100767.81;6227879;28;20370;-73
2023/06/19 06:35:27;;;;;;;5.22;3.55;;;;;;;21.47;75.48;100767.66;6233533;28;20103;-73
2023/06/19 06:38:28;;;;;;;6.15;2.78;;;;;;;21.51;75.38;100777.06;6229817;28;20510;-73
2023/06/19 06:41:31;;;;;;;5.18;3.13;;;;;;;21.56;74.54;100785.47;6228831;28;20491;-73
2023/06/19 06:44:32;;;;;;;6.97;3.10;;;;;;;21.61;73.85;100771.63;6231297;28;20048;-73
2023/06/19 06:47:35;;;;;;;11.40;3.50;;;;;;;21.67;73.68;100779.91;6231592;28;20050;-73
2023/06/19 06:50:36;;;;;;;5.20;3.20;;;;;;;21.79;68.86;100780.50;6231408;28;20042;-73
2023/06/19 06:53:37;;;;;;;10.57;3.70;;;;;;;21.91;68.34;100783.78;6227541;28;20434;-74
2023/06/19 06:56:40;;;;;;;5.32;2.97;;;;;;;22.00;69.28;100774.81;6249783;28;20045;-73
2023/06/19 06:59:41;;;;;;;5.22;3.28;;;;;;;22.08;68.04;100774.06;6250882;28;20045;-73
2023/06/19 07:02:43;;;;;;;4.68;3.30;;;;;;;22.19;68.10;100779.19;6247182;28;20073;-73
2023/06/19 07:05:44;;;;;;;4.85;3.50;;;;;;;22.27;67.97;100782.75;6243578;28;20042;-74
2023/06/19 07:08:47;;;;;;;7.13;4.05;;;;;;;22.39;68.82;100790.50;6250760;28;20045;-74
2023/06/19 07:11:50;;;;;;;5.00;3.05;;;;;;;22.45;69.68;100792.59;6234703;28;20041;-72
2023/06/19 07:14:54;;;;;;;6.30;3.78;;;;;;;22.61;64.48;100803.38;6250579;28;20129;-71
2023/06/19 07:17:57;;;;;;;5.60;3.42;;;;;;;22.76;65.05;100801.81;6249789;28;20057;-72
2023/06/19 07:20:58;;;;;;;4.90;3.15;;;;;;;22.90;64.95;100810.28;6249934;28;20442;-72
2023/06/19 07:23:59;;;;;;;5.25;3.78;;;;;;;22.98;64.83;100807.63;6250332;28;20050;-71
2023/06/19 07:27:02;;;;;;;5.55;3.83;;;;;;;23.06;63.92;100809.50;6250637;28;20052;-73
2023/06/19 07:30:05;;;;;;;5.05;3.25;;;;;;;23.03;64.39;100810.69;6249705;28;20045;-72
2023/06/19 07:33:06;;;;;;;5.80;3.40;;;;;;;23.01;64.35;100812.66;6246224;28;20053;-72
2023/06/19 07:36:08;;;;;;;5.35;3.60;;;;;;;22.99;65.01;100812.84;6244869;28;20042;-72
2023/06/19 07:39:09;;;;;;;6.25;3.85;;;;;;;23.02;64.80;100814.34;6250496;28;20041;-72
2023/06/19 07:42:13;;;;;;;7.65;4.03;;;;;;;23.03;65.03;100811.50;6246273;28;20053;-74
2023/06/19 07:45:15;;;;;;;5.25;3.92;;;;;;;23.09;64.33;100811.88;6245422;28;20038;-73
2023/06/19 07:48:16;;;;;;;6.22;3.95;;;;;;;23.11;63.14;100815.22;6249954;28;20049;-77
2023/06/19 07:51:17;;;;;;;5.60;3.95;;;;;;;23.22;63.20;100817.63;6249144;28;20046;-74
2023/06/19 07:54:19;;;;;;;6.72;3.85;;;;;;;23.23;64.09;100825.50;6249664;28;20350;-73
2023/06/19 07:57:22;;;;;;;6.70;4.05;;;;;;;23.32;64.91;100831.72;6250009;28;20127;-72
2023/06/19 08:00:24;;;;;;;6.28;4.03;;;;;;;23.29;64.62;100835.56;6249388;28;20042;-72
2023/06/19 08:03:25;;;;;;;5.30;3.55;;;;;;;23.35;65.56;100828.72;6243807;28;20046;-72
2023/06/19 08:06:27;;;;;;;5.65;3.67;;;;;;;23.52;64.36;100824.22;6241390;28;20127;-72
2023/06/19 08:09:28;;;;;;;9.30;3.80;;;;;;;23.64;63.61;100830.13;6232365;28;20056;-71
2023/06/19 08:12:31;;;;;;;5.38;3.40;;;;;;;23.65;65.47;100831.84;6238679;28;20050;-70
2023/06/19 08:15:32;;;;;;;5.68;3.88;;;;;;;23.72;64.59;100833.72;6244824;28;20072;-72
2023/06/19 08:18:34;;;;;;;4.68;3.40;;;;;;;23.71;64.64;100839.22;6235294;28;20046;-71
2023/06/19 08:21:35;;;;;;;5.88;3.20;;;;;;;23.71;65.93;100832.03;6231202;28;20045;-72
2023/06/19 08:24:38;;;;;;;5.43;3.20;;;;;;;23.73;65.73;100827.31;6234033;28;20042;-73
2023/06/19 08:27:41;;;;;;;5.07;3.22;;;;;;;23.75;66.32;100837.88;6242199;28;20115;-73
2023/06/19 08:30:42;;;;;;;4.63;3.00;;;;;;;23.79;66.13;100823.13;6239652;28;20062;-71
2023/06/19 08:33:44;;;;;;;4.70;3.03;;;;;;;23.84;66.38;100815.41;6237707;28;20045;-71
2023/06/19 08:36:46;;;;;;;6.05;3.33;;;;;;;23.89;66.60;100822.97;6253789;28;20128;-71
2023/06/19 08:39:47;;;;;;;6.53;3.38;;;;;;;23.88;66.98;100815.94;6231525;28;20434;-72
2023/06/19 08:42:51;;;;;;;4.32;3.20;;;;;;;23.92;67.54;100817.28;6236966;28;20077;-71
2023/06/19 08:46:04;;;;;;;5.85;3.00;;;;;;;24.00;67.06;100817.28;6253234;28;20052;-72
2023/06/19 08:49:07;;;;;;;5.20;2.97;;;;;;;24.05;66.55;100817.63;6242708;28;20057;-73
2023/06/19 08:52:08;;;;;;;4.70;3.05;;;;;;;24.10;66.47;100815.28;6240881;28;20358;-77
2023/06/19 08:55:10;;;;;;;4.35;3.08;;;;;;;24.12;66.94;100821.31;6249556;28;20037;-73
2023/06/19 08:58:22;;;;;;;5.45;2.80;;;;;;;24.25;65.37;100827.03;6233588;28;20131;-73
2023/06/19 09:01:26;;;;;;;5.85;2.88;;;;;;;24.27;66.57;100827.69;6241308;28;20046;-73
2023/06/19 09:04:28;;;;;;;2.10;1.80;;;;;;;24.34;63.93;100838.59;6232934;28;20508;-75
2023/06/19 09:07:29;;;;;;;3.50;2.60;;;;;;;24.38;63.04;100844.50;6232642;28;20176;-73
2023/06/19 09:10:31;;;;;;;2.97;2.20;;;;;;;24.38;64.27;100837.28;6252952;28;20057;-73
2023/06/19 09:13:34;;;;;;;5.50;2.20;;;;;;;24.39;63.95;100847.03;6253432;28;20060;-78
2023/06/19 09:16:40;;;;;;;2.58;2.10;;;;;;;24.44;63.87;100854.59;6248576;28;20046;-73
2023/06/19 09:19:48;;;;;;;5.18;2.50;;;;;;;24.48;64.22;100847.84;6252484;28;20052;-73
2023/06/19 09:22:50;;;;;;;3.78;2.30;;;;;;;24.46;65.22;100853.38;6252469;28;20050;-73
2023/06/19 09:25:53;;;;;;;3.13;2.17;;;;;;;24.51;66.27;100861.78;6248823;28;20045;-73
2023/06/19 09:28:56;;;;;;;4.18;2.30;;;;;;;24.57;64.46;100857.56;6237683;28;20049;-75
2023/06/19 09:31:57;;;;;;;3.05;2.17;;;;;;;24.66;64.37;100855.69;6252461;28;20057;-73
2023/06/19 09:34:59;;;;;;;4.45;2.50;;;;;;;24.61;64.07;100866.13;6242474;28;20046;-73
2023/06/19 09:38:02;;;;;;;4.47;2.45;;;;;;;24.61;64.30;100856.22;6236447;28;20413;-75
2023/06/19 09:41:05;;;;;;;4.32;2.25;;;;;;;24.68;65.65;100861.75;6245333;28;20357;-73
2023/06/19 09:44:12;;;;;;;3.72;2.20;;;;;;;24.70;64.91;100854.34;6248021;28;20060;-73
2023/06/19 09:47:18;;;;;;;2.50;2.00;;;;;;;24.79;65.15;100862.22;6249081;28;20056;-72
2023/06/19 09:50:21;;;;;;;3.97;2.80;;;;;;;24.87;65.43;100863.22;6239908;28;20350;-73
2023/06/19 09:53:23;;;;;;;2.72;1.80;;;;;;;25.01;64.33;100879.47;6247034;28;20053;-74
2023/06/19 09:56:26;;;;;;;2.92;1.90;;;;;;;25.12;64.23;100880.16;6252474;28;20049;-74
2023/06/19 09:59:30;;;;;;;3.15;2.20;;;;;;;25.02;64.48;100885.69;6252508;28;20148;-73
2023/06/19 10:02:31;;;;;;;4.07;2.47;;;;;;;24.97;64.34;100888.91;6247069;28;20050;-73
2023/06/19 10:05:33;;;;;;;5.05;2.15;;;;;;;24.87;62.67;100890.94;6244286;28;20045;-78
2023/06/19 10:08:40;;;;;;;3.60;1.88;;;;;;;24.80;63.68;100893.50;6248213;28;20108;-73
2023/06/19 10:11:46;;;;;;;2.33;1.70;;;;;;;24.79;63.33;100890.97;6223854;28;20049;-73
2023/06/19 10:14:49;;;;;;;5.60;1.70;;;;;;;24.78;63.20;100890.13;6239038;28;20129;-74
2023/06/19 10:17:51;;;;;;;1.90;1.60;;;;;;;24.82;63.79;100893.31;6244766;28;20046;-75
2023/06/19 10:20:55;;;;;;;2.70;1.85;;;;;;;24.80;65.96;100900.72;6239466;28;20089;-76
2023/06/19 10:23:57;;;;;;;6.50;2.10;;;;;;;24.76;65.01;100899.38;6222194;28;20359;-73
2023/06/19 10:27:00;;;;;;;2.70;1.73;;;;;;;24.60;64.96;100902.91;6232681;28;20517;-73
2023/06/19 10:30:04;;;;;;;4.13;1.70;;;;;;;24.55;65.58;100900.75;6236806;28;20046;-74
2023/06/19 10:33:05;;;;;;;3.22;1.83;;;;;;;24.52;65.95;100913.66;6229444;28;20089;-73
2023/06/19 10:36:15;;;;;;;2.38;1.40;;;;;;;24.61;65.74;100906.44;6229375;28;20056;-74
2023/06/19 10:39:16;;;;;;;1.77;1.42;;;;;;;24.66;64.87;100904.91;6239503;28;20049;-73
2023/06/19 10:42:18;;;;;;;1.83;1.30;;;;;;;24.86;62.51;100902.72;6225702;28;20050;-74
2023/06/19 10:45:28;;;;;;;3.78;1.50;;;;;;;24.97;63.10;100910.41;6233150;28;20049;-73
2023/06/19 10:48:29;;;;;;;5.18;1.38;;;;;;;24.82;63.02;100908.63;6246527;28;20052;-73
2023/06/19 10:51:31;;;;;;;2.65;1.40;;;;;;;24.81;62.67;100899.72;6238525;28;20374;-78
2023/06/19 10:54:33;;;;;;;1.80;1.17;;;;;;;24.90;63.45;100896.00;6244786;28;20045;-78
2023/06/19 10:57:34;;;;;;;2.35;1.40;;;;;;;25.07;62.11;100902.16;6250218;28;20041;-73
2023/06/19 11:00:37;;;;;;;3.40;1.10;;;;;;;25.11;62.87;100900.00;6249214;28;20045;-73
2023/06/19 11:03:38;;;;;;;3.33;1.77;;;;;;;25.12;62.18;100899.84;6241031;28;20364;-73
2023/06/19 11:06:41;;;;;;;1.17;1.05;;;;;;;25.06;61.90;100901.31;6250644;28;20041;-73
2023/06/19 11:09:43;;;;;;;1.63;1.10;;;;;;;25.01;63.64;100916.28;6250886;28;20148;-73
2023/06/19 11:12:44;;;;;;;2.35;1.33;;;;;;;24.92;62.66;100922.69;6222733;28;20046;-73
2023/06/19 11:15:49;;;;;;;1.00;0.90;;;;;;;24.83;62.65;100929.94;6249991;28;20052;-74
2023/06/19 11:18:56;;;;;;;1.27;1.15;;;;;;;24.66;63.46;100928.28;6242066;28;20055;-73
2023/06/19 11:21:59;;;;;;;2.20;1.48;;;;;;;24.57;63.56;100931.97;6234590;28;20060;-78
2023/06/19 11:25:03;;;;;;;1.23;1.10;;;;;;;24.59;64.02;100933.50;6245182;28;20443;-73
2023/06/19 11:28:05;;;;;;;2.00;1.10;;;;;;;24.47;63.45;100935.66;6250585;28;20050;-80
2023/06/19 11:31:10;;;;;;;2.03;1.20;;;;;;;24.49;64.26;100933.66;6249755;28;20053;-72
2023/06/19 11:34:12;;;;;;;2.75;1.15;;;;;;;24.53;64.36;100959.19;6235727;28;20061;-79
2023/06/19 11:37:14;;;;;;;1.85;1.10;;;;;;;24.49;62.75;100940.88;6241903;28;20438;-73
2023/06/19 11:40:17;;;;;;;1.20;1.10;;;;;;;24.49;62.64;100949.78;6241141;28;20401;-76
2023/06/19 11:43:26;;;;;;;3.22;1.17;;;;;;;24.47;62.51;100953.63;6249821;28;20128;-74
2023/06/19 11:46:32;;;;;;;1.83;1.30;;;;;;;24.57;62.26;100950.78;6249774;28;20442;-73
2023/06/19 11:49:36;;;;;;;1.15;1.05;;;;;;;24.60;62.15;100945.09;6250064;28;20049;-72
2023/06/19 11:52:37;;;;;;;1.55;1.00;;;;;;;24.59;62.00;100949.63;6249160;28;20045;-73
2023/06/19 11:55:39;;;;;;;1.73;1.02;;;;;;;24.63;60.39;100948.28;6228650;28;20043;-73
2023/06/19 11:58:40;;;;;;;1.20;1.00;;;;;;;25.02;62.83;100956.44;6235462;28;20049;-73
2023/06/19 12:01:43;;;;;;;1.17;1.00;;;;;;;25.19;58.55;100961.84;6234224;28;20056;-79
2023/06/19 12:04:44;;;;;;;1.30;1.13;;;;;;;25.15;59.71;100966.72;6219907;28;20065;-73
2023/06/19 12:07:46;;;;;;;4.60;1.27;;;;;;;25.15;59.81;100969.41;6233322;28;20358;-75
2023/06/19 12:10:47;;;;;;;2.92;1.00;;;;;;;25.09;59.16;100964.72;6246975;28;20044;-73
2023/06/19 12:13:49;;;;;;;1.38;0.98;;;;;;;25.08;59.98;100965.75;6241546;28;20495;-72
2023/06/19 12:16:51;;;;;;;1.98;1.30;;;;;;;25.02;61.52;100961.81;6238727;28;20037;-73
2023/06/19 12:19:53;;;;;;;1.45;1.27;;;;;;;24.97;60.18;100963.34;6254641;28;20470;-73
2023/06/19 12:22:54;;;;;;;2.42;1.33;;;;;;;24.96;60.36;100967.06;6240232;28;20046;-73
2023/06/19 12:25:56;;;;;;;2.15;1.27;;;;;;;24.77;60.97;100968.25;6254404;28;20457;-73
2023/06/19 12:28:57;;;;;;;2.17;1.35;;;;;;;24.64;62.47;100967.94;6246432;28;20060;-78
2023/06/19 12:32:03;;;;;;;1.70;1.50;;;;;;;24.60;61.74;100978.16;6234927;28;20062;-73
2023/06/19 12:35:06;;;;;;;1.40;1.10;;;;;;;24.54;61.81;100968.94;6238059;28;20050;-74
2023/06/19 12:38:07;;;;;;;7.75;1.35;;;;;;;24.58;63.16;100976.66;6247746;28;20071;-74
2023/06/19 12:41:09;;;;;;;1.45;1.08;;;;;;;24.55;63.64;100977.84;6253717;28;20049;-73
2023/06/19 12:44:11;;;;;;;2.30;1.45;;;;;;;24.59;63.77;100981.88;6237482;28;20128;-73
2023/06/19 12:47:15;;;;;;;2.47;1.42;;;;;;;24.51;63.11;100980.00;6254021;28;20402;-73
2023/06/19 12:50:16;;;;;;;2.75;1.35;;;;;;;24.55;64.92;100980.53;6244316;28;20045;-73
2023/06/19 12:53:17;;;;;;;1.88;1.40;;;;;;;24.68;64.53;100971.97;6248250;28;20041;-73
2023/06/19 12:56:19;;;;;;;1.33;1.13;;;;;;;24.70;63.68;100969.94;6253784;28;20064;-73
2023/06/19 12:59:20;;;;;;;2.85;1.77;;;;;;;24.71;64.63;100983.22;6253651;28;20357;-73
2023/06/19 13:02:23;;;;;;;2.45;1.80;;;;;;;24.68;65.25;100977.34;6248318;28;20042;-73
2023/06/19 13:05:24;;;;;;;3.28;2.13;;;;;;;24.74;65.44;100977.50;6253466;28;20049;-72
2023/06/19 13:08:25;;;;;;;2.15;1.52;;;;;;;24.74;64.48;100977.50;6253410;28;20046;-73
2023/06/19 13:11:27;;;;;;;4.03;1.48;;;;;;;24.80;66.33;100971.47;6252732;28;20045;-75
2023/06/19 13:14:28;;;;;;;2.33;1.27;;;;;;;24.82;63.54;100968.59;6252105;28;20069;-76
2023/06/19 13:17:31;;;;;;;3.03;1.90;;;;;;;24.95;63.62;100973.47;6253429;28;20123;-75
2023/06/19 13:20:32;;;;;;;1.60;1.50;;;;;;;25.04;63.49;100967.88;6252836;28;20041;-75
2023/06/19 13:23:34;;;;;;;4.53;1.42;;;;;;;25.01;63.23;100980.84;6253302;28;20049;-74
2023/06/19 13:26:36;;;;;;;2.88;1.60;;;;;;;24.95;61.98;100973.47;6253106;28;20069;-76
2023/06/19 13:29:39;;;;;;;2.55;1.50;;;;;;;24.96;63.20;100981.34;6253272;28;20052;-75
2023/06/19 13:32:42;;;;;;;1.60;1.38;;;;;;;24.92;64.00;100980.00;6246760;28;20053;-75
2023/06/19 13:35:43;;;;;;;3.58;1.30;;;;;;;24.83;64.83;100982.88;6246237;28;20298;-73
2023/06/19 13:38:45;;;;;;;2.40;1.75;;;;;;;24.85;64.40;100983.56;6245616;28;20068;-73
2023/06/19 13:41:46;;;;;;;5.32;1.27;;;;;;;25.00;64.76;100982.69;6252144;28;20049;-73
2023/06/19 13:44:48;;;;;;;1.52;1.33;;;;;;;25.43;63.74;100977.91;6252481;28;20052;-73
2023/06/19 13:47:50;;;;;;;4.65;1.58;;;;;;;25.52;62.37;100973.34;6224919;28;20046;-73
2023/06/19 13:50:52;;;;;;;2.72;1.50;;;;;;;25.61;61.28;100983.06;6231172;28;20050;-73
2023/06/19 13:53:54;;;;;;;2.22;1.35;;;;;;;25.78;61.22;100976.63;6252730;28;20042;-73
2023/06/19 13:56:55;;;;;;;2.00;1.55;;;;;;;25.88;61.74;100970.19;6229354;28;20042;-73
2023/06/19 13:59:56;;;;;;;1.80;1.58;;;;;;;25.74;61.08;100974.44;6252587;28;20064;-73
2023/06/19 14:02:59;;;;;;;2.08;1.67;;;;;;;25.58;61.47;100979.91;6244589;28;20057;-74
2023/06/19 14:06:00;;;;;;;2.95;1.80;;;;;;;25.25;62.04;100967.38;6235150;28;20049;-73